66.8°F
Current conditions from King Hill
Updated every 5 minutes
 
  Monday September 1, 2014

Station Historical Data
Daily Summary for March 14, 2012 Units:  Both    English   Metric
« Previous Day
Next Day »
Daily Weekly Monthly Yearly Custom
  High: Low: Average:
Temperature: 54.4 °F /  12.4 °C 37.0 °F /  2.8 °C 41.4 °F /  5.2 °C
Dew Point: 41.4 °F /  5.2 °C 33.1 °F /  0.6 °C 35.5 °F /  1.9 °C
Humidity: 93% 60% 80%
Wind Speed: 9.0mph /  14.5km/h - 4.2mph /  6.8km/h
Wind Gust: 15.0mph /  24.1km/h - -
Wind- - West
Pressure: 30.22 in /  1023.2 hPa 29.87 in /  1011.4 hPa -
Precipitation: 0.06 in /  1.5 mm    
Historical Graphs
 
 
Tabular Data for March 14, 2012
Time Temperature Dew Point Pressure Wind Wind Speed Wind Gust Humidity Daily Rainfall
00:00 54.4 °F /  12.4 °C 40.8 °F /  4.9 °C 29.87in /  1011.4hPa WSW 3.0mph /  4.8km/h 12.0mph /  19.3km/h 60% 0.18in /  4.6mm
00:10 54.4 °F /  12.4 °C 41.2 °F /  5.1 °C 29.88in /  1011.7hPa West 4.0mph /  6.4km/h 15.0mph /  24.1km/h 61% 0.00in /  0mm
00:15 54.0 °F /  12.2 °C 40.4 °F /  4.7 °C 29.88in /  1011.7hPa WSW 3.0mph /  4.8km/h 10.0mph /  16.1km/h 60% 0.00in /  0mm
00:20 53.6 °F /  12 °C 40.5 °F /  4.7 °C 29.88in /  1011.7hPa WSW 6.0mph /  9.7km/h 10.0mph /  16.1km/h 61% 0.00in /  0mm
00:25 53.5 °F /  11.9 °C 40.4 °F /  4.7 °C 29.88in /  1011.7hPa WSW 6.0mph /  9.7km/h 12.0mph /  19.3km/h 61% 0.00in /  0mm
00:30 52.9 °F /  11.6 °C 40.2 °F /  4.6 °C 29.88in /  1011.7hPa WSW 4.0mph /  6.4km/h 12.0mph /  19.3km/h 62% 0.00in /  0mm
00:35 52.5 °F /  11.4 °C 40.3 °F /  4.6 °C 29.88in /  1011.7hPa West 6.0mph /  9.7km/h 11.0mph /  17.7km/h 63% 0.00in /  0mm
00:45 52.5 °F /  11.4 °C 40.7 °F /  4.8 °C 29.88in /  1011.7hPa West 7.0mph /  11.3km/h 11.0mph /  17.7km/h 64% 0.00in /  0mm
00:50 52.7 °F /  11.5 °C 40.9 °F /  4.9 °C 29.88in /  1011.7hPa West 6.0mph /  9.7km/h 13.0mph /  20.9km/h 64% 0.00in /  0mm
00:55 52.9 °F /  11.6 °C 41.1 °F /  5.1 °C 29.89in /  1012.1hPa West 6.0mph /  9.7km/h 13.0mph /  20.9km/h 64% 0.00in /  0mm
01:00 52.9 °F /  11.6 °C 41.1 °F /  5.1 °C 29.89in /  1012.1hPa WNW 6.0mph /  9.7km/h 12.0mph /  19.3km/h 64% 0.00in /  0mm
01:05 52.4 °F /  11.3 °C 41.4 °F /  5.2 °C 29.90in /  1012.4hPa NNW 7.0mph /  11.3km/h 14.0mph /  22.5km/h 66% 0.00in /  0mm
01:10 50.8 °F /  10.4 °C 41.0 °F /  5 °C 29.90in /  1012.4hPa NW 4.0mph /  6.4km/h 14.0mph /  22.5km/h 69% 0.00in /  0mm
01:15 49.3 °F /  9.6 °C 40.3 °F /  4.6 °C 29.90in /  1012.4hPa NW 5.0mph /  8km/h 14.0mph /  22.5km/h 71% 0.00in /  0mm
01:20 48.5 °F /  9.2 °C 39.9 °F /  4.4 °C 29.91in /  1012.8hPa WNW 3.0mph /  4.8km/h 14.0mph /  22.5km/h 72% 0.00in /  0mm
01:25 48.0 °F /  8.9 °C 40.1 °F /  4.5 °C 29.91in /  1012.8hPa Calm   8.0mph /  12.9km/h 74% 0.00in /  0mm
01:30 47.8 °F /  8.8 °C 39.9 °F /  4.4 °C 29.91in /  1012.8hPa NW 1.0mph /  1.6km/h 6.0mph /  9.7km/h 74% 0.00in /  0mm
01:40 47.5 °F /  8.6 °C 40.0 °F /  4.4 °C 29.91in /  1012.8hPa Calm     75% 0.00in /  0mm
01:45 47.2 °F /  8.4 °C 40.0 °F /  4.4 °C 29.92in /  1013.1hPa Calm   2.0mph /  3.2km/h 76% 0.00in /  0mm
01:55 46.7 °F /  8.2 °C 39.5 °F /  4.2 °C 29.92in /  1013.1hPa Calm     76% 0.00in /  0mm
02:00 46.6 °F /  8.1 °C 39.8 °F /  4.3 °C 29.92in /  1013.1hPa Calm     77% 0.00in /  0mm
02:10 46.3 °F /  7.9 °C 39.5 °F /  4.2 °C 29.92in /  1013.1hPa Calm   5.0mph /  8km/h 77% 0.00in /  0mm
02:15 45.8 °F /  7.7 °C 39.0 °F /  3.9 °C 29.91in /  1012.8hPa Calm     77% 0.00in /  0mm
02:20 45.5 °F /  7.5 °C 38.7 °F /  3.7 °C 29.91in /  1012.8hPa Calm   1.0mph /  1.6km/h 77% 0.00in /  0mm
02:25 45.4 °F /  7.4 °C 38.6 °F /  3.7 °C 29.91in /  1012.8hPa Calm   1.0mph /  1.6km/h 77% 0.00in /  0mm
02:30 45.3 °F /  7.4 °C 38.2 °F /  3.4 °C 29.91in /  1012.8hPa Calm   1.0mph /  1.6km/h 76% 0.00in /  0mm
02:40 45.0 °F /  7.2 °C 37.9 °F /  3.3 °C 29.91in /  1012.8hPa Calm   1.0mph /  1.6km/h 76% 0.00in /  0mm
02:45 44.6 °F /  7 °C 37.2 °F /  2.9 °C 29.91in /  1012.8hPa Calm   1.0mph /  1.6km/h 75% 0.00in /  0mm
02:50 44.2 °F /  6.8 °C 37.1 °F /  2.8 °C 29.91in /  1012.8hPa Calm   1.0mph /  1.6km/h 76% 0.00in /  0mm
02:55 44.2 °F /  6.8 °C 36.8 °F /  2.7 °C 29.91in /  1012.8hPa Calm     75% 0.00in /  0mm
03:00 44.3 °F /  6.8 °C 36.5 °F /  2.5 °C 29.91in /  1012.8hPa Calm   1.0mph /  1.6km/h 74% 0.00in /  0mm
03:05 44.4 °F /  6.9 °C 36.6 °F /  2.6 °C 29.91in /  1012.8hPa Calm   1.0mph /  1.6km/h 74% 0.00in /  0mm
03:10 44.2 °F /  6.8 °C 36.1 °F /  2.3 °C 29.91in /  1012.8hPa NW 1.0mph /  1.6km/h 2.0mph /  3.2km/h 73% 0.00in /  0mm
03:15 43.1 °F /  6.2 °C 34.7 °F /  1.5 °C 29.91in /  1012.8hPa Calm   2.0mph /  3.2km/h 72% 0.00in /  0mm
03:20 42.6 °F /  5.9 °C 34.9 °F /  1.6 °C 29.91in /  1012.8hPa Calm   2.0mph /  3.2km/h 74% 0.00in /  0mm
03:25 42.5 °F /  5.8 °C 35.5 °F /  1.9 °C 29.91in /  1012.8hPa Calm   1.0mph /  1.6km/h 76% 0.00in /  0mm
03:30 42.3 °F /  5.7 °C 34.9 °F /  1.6 °C 29.91in /  1012.8hPa Calm   1.0mph /  1.6km/h 75% 0.00in /  0mm
03:35 41.9 °F /  5.5 °C 35.2 °F /  1.8 °C 29.91in /  1012.8hPa Calm     77% 0.00in /  0mm
03:40 41.6 °F /  5.3 °C 35.3 °F /  1.8 °C 29.91in /  1012.8hPa NW 1.0mph /  1.6km/h 2.0mph /  3.2km/h 78% 0.00in /  0mm
03:45 41.8 °F /  5.4 °C 35.4 °F /  1.9 °C 29.91in /  1012.8hPa Calm   2.0mph /  3.2km/h 78% 0.00in /  0mm
03:50 42.0 °F /  5.6 °C 35.3 °F /  1.8 °C 29.91in /  1012.8hPa Calm   3.0mph /  4.8km/h 77% 0.00in /  0mm
03:55 41.1 °F /  5.1 °C 33.8 °F /  1 °C 29.91in /  1012.8hPa Calm   3.0mph /  4.8km/h 75% 0.00in /  0mm
04:00 40.4 °F /  4.7 °C 33.8 °F /  1 °C 29.91in /  1012.8hPa Calm   3.0mph /  4.8km/h 77% 0.00in /  0mm
04:05 39.7 °F /  4.3 °C 33.1 °F /  0.6 °C 29.91in /  1012.8hPa South 1.0mph /  1.6km/h 3.0mph /  4.8km/h 77% 0.00in /  0mm
04:15 39.5 °F /  4.2 °C 33.8 °F /  1 °C 29.92in /  1013.1hPa Calm   1.0mph /  1.6km/h 80% 0.00in /  0mm
04:20 40.1 °F /  4.5 °C 34.4 °F /  1.3 °C 29.92in /  1013.1hPa Calm   1.0mph /  1.6km/h 80% 0.00in /  0mm
04:25 40.0 °F /  4.4 °C 34.0 °F /  1.1 °C 29.92in /  1013.1hPa Calm     79% 0.00in /  0mm
04:30 39.5 °F /  4.2 °C 33.5 °F /  0.8 °C 29.92in /  1013.1hPa Calm     79% 0.00in /  0mm
04:40 38.9 °F /  3.8 °C 33.3 °F /  0.7 °C 29.92in /  1013.1hPa South 2.0mph /  3.2km/h 3.0mph /  4.8km/h 80% 0.00in /  0mm
04:45 39.1 °F /  3.9 °C 33.8 °F /  1 °C 29.92in /  1013.1hPa South 2.0mph /  3.2km/h 3.0mph /  4.8km/h 81% 0.00in /  0mm
04:50 40.0 °F /  4.4 °C 35.3 °F /  1.8 °C 29.92in /  1013.1hPa South 2.0mph /  3.2km/h 3.0mph /  4.8km/h 83% 0.00in /  0mm
04:55 40.2 °F /  4.6 °C 35.1 °F /  1.7 °C 29.92in /  1013.1hPa Calm   3.0mph /  4.8km/h 82% 0.00in /  0mm
05:00 40.7 °F /  4.8 °C 35.6 °F /  2 °C 29.92in /  1013.1hPa Calm   2.0mph /  3.2km/h 82% 0.00in /  0mm
05:05 40.9 °F /  4.9 °C 35.5 °F /  1.9 °C 29.92in /  1013.1hPa SSW 3.0mph /  4.8km/h 6.0mph /  9.7km/h 81% 0.00in /  0mm
05:10 41.5 °F /  5.3 °C 35.8 °F /  2.1 °C 29.92in /  1013.1hPa SSW 2.0mph /  3.2km/h 6.0mph /  9.7km/h 80% 0.00in /  0mm
05:15 42.2 °F /  5.7 °C 35.8 °F /  2.1 °C 29.92in /  1013.1hPa Calm   4.0mph /  6.4km/h 78% 0.00in /  0mm
05:20 42.6 °F /  5.9 °C 35.9 °F /  2.2 °C 29.92in /  1013.1hPa SSW 1.0mph /  1.6km/h 3.0mph /  4.8km/h 77% 0.00in /  0mm
05:25 42.8 °F /  6 °C 35.8 °F /  2.1 °C 29.92in /  1013.1hPa Calm   4.0mph /  6.4km/h 76% 0.00in /  0mm
05:30 42.8 °F /  6 °C 35.8 °F /  2.1 °C 29.92in /  1013.1hPa Calm   4.0mph /  6.4km/h 76% 0.00in /  0mm
05:35 42.7 °F /  5.9 °C 35.7 °F /  2.1 °C 29.93in /  1013.4hPa Calm   1.0mph /  1.6km/h 76% 0.00in /  0mm
05:40 42.2 °F /  5.7 °C 35.2 °F /  1.8 °C 29.93in /  1013.4hPa Calm   1.0mph /  1.6km/h 76% 0.00in /  0mm
05:45 41.8 °F /  5.4 °C 35.4 °F /  1.9 °C 29.93in /  1013.4hPa Calm     78% 0.00in /  0mm
05:50 41.9 °F /  5.5 °C 35.5 °F /  1.9 °C 29.94in /  1013.8hPa Calm     78% 0.00in /  0mm
05:55 41.6 °F /  5.3 °C 34.9 °F /  1.6 °C 29.94in /  1013.8hPa Calm     77% 0.00in /  0mm
06:00 41.4 °F /  5.2 °C 35.1 °F /  1.7 °C 29.94in /  1013.8hPa Calm   1.0mph /  1.6km/h 78% 0.00in /  0mm
06:05 41.5 °F /  5.3 °C 35.2 °F /  1.8 °C 29.94in /  1013.8hPa NW 4.0mph /  6.4km/h 12.0mph /  19.3km/h 78% 0.00in /  0mm
06:15 42.9 °F /  6.1 °C 35.2 °F /  1.8 °C 29.95in /  1014.1hPa WNW 3.0mph /  4.8km/h 9.0mph /  14.5km/h 74% 0.00in /  0mm
06:20 42.9 °F /  6.1 °C 34.8 °F /  1.6 °C 29.95in /  1014.1hPa NW 5.0mph /  8km/h 8.0mph /  12.9km/h 73% 0.00in /  0mm
06:25 42.9 °F /  6.1 °C 34.8 °F /  1.6 °C 29.95in /  1014.1hPa WNW 5.0mph /  8km/h 8.0mph /  12.9km/h 73% 0.00in /  0mm
06:30 42.6 °F /  5.9 °C 34.2 °F /  1.2 °C 29.95in /  1014.1hPa West 6.0mph /  9.7km/h 10.0mph /  16.1km/h 72% 0.00in /  0mm
06:35 42.4 °F /  5.8 °C 34.4 °F /  1.3 °C 29.95in /  1014.1hPa WNW 5.0mph /  8km/h 10.0mph /  16.1km/h 73% 0.00in /  0mm
06:40 42.2 °F /  5.7 °C 34.2 °F /  1.2 °C 29.96in /  1014.4hPa WNW 4.0mph /  6.4km/h 10.0mph /  16.1km/h 73% 0.00in /  0mm
06:45 42.2 °F /  5.7 °C 34.2 °F /  1.2 °C 29.96in /  1014.4hPa WNW 5.0mph /  8km/h 13.0mph /  20.9km/h 73% 0.00in /  0mm
06:50 42.3 °F /  5.7 °C 34.3 °F /  1.3 °C 29.97in /  1014.8hPa WNW 4.0mph /  6.4km/h 13.0mph /  20.9km/h 73% 0.00in /  0mm
06:55 42.2 °F /  5.7 °C 34.2 °F /  1.2 °C 29.97in /  1014.8hPa NW 6.0mph /  9.7km/h 9.0mph /  14.5km/h 73% 0.00in /  0mm
07:00 42.0 °F /  5.6 °C 34.0 °F /  1.1 °C 29.97in /  1014.8hPa WNW 5.0mph /  8km/h 9.0mph /  14.5km/h 73% 0.00in /  0mm
07:05 41.8 °F /  5.4 °C 33.8 °F /  1 °C 29.97in /  1014.8hPa WNW 7.0mph /  11.3km/h 11.0mph /  17.7km/h 73% 0.00in /  0mm
07:10 41.7 °F /  5.4 °C 33.7 °F /  0.9 °C 29.97in /  1014.8hPa WNW 5.0mph /  8km/h 11.0mph /  17.7km/h 73% 0.00in /  0mm
07:15 41.8 °F /  5.4 °C 33.4 °F /  0.8 °C 29.97in /  1014.8hPa West 5.0mph /  8km/h 10.0mph /  16.1km/h 72% 0.00in /  0mm
07:20 41.8 °F /  5.4 °C 33.4 °F /  0.8 °C 29.97in /  1014.8hPa WNW 6.0mph /  9.7km/h 10.0mph /  16.1km/h 72% 0.00in /  0mm
07:25 41.9 °F /  5.5 °C 33.5 °F /  0.8 °C 29.98in /  1015.1hPa WNW 9.0mph /  14.5km/h 14.0mph /  22.5km/h 72% 0.00in /  0mm
07:30 41.9 °F /  5.5 °C 33.5 °F /  0.8 °C 29.98in /  1015.1hPa WNW 8.0mph /  12.9km/h 14.0mph /  22.5km/h 72% 0.00in /  0mm
07:35 41.9 °F /  5.5 °C 33.5 °F /  0.8 °C 29.98in /  1015.1hPa WNW 7.0mph /  11.3km/h 14.0mph /  22.5km/h 72% 0.00in /  0mm
07:40 41.9 °F /  5.5 °C 33.5 °F /  0.8 °C 29.98in /  1015.1hPa WNW 8.0mph /  12.9km/h 14.0mph /  22.5km/h 72% 0.00in /  0mm
07:45 41.9 °F /  5.5 °C 33.2 °F /  0.7 °C 29.98in /  1015.1hPa WNW 8.0mph /  12.9km/h 14.0mph /  22.5km/h 71% 0.00in /  0mm
07:50 41.9 °F /  5.5 °C 33.5 °F /  0.8 °C 29.99in /  1015.5hPa West 7.0mph /  11.3km/h 14.0mph /  22.5km/h 72% 0.00in /  0mm
07:55 41.8 °F /  5.4 °C 33.4 °F /  0.8 °C 29.99in /  1015.5hPa West 5.0mph /  8km/h 13.0mph /  20.9km/h 72% 0.00in /  0mm
08:00 41.8 °F /  5.4 °C 33.4 °F /  0.8 °C 29.99in /  1015.5hPa West 6.0mph /  9.7km/h 10.0mph /  16.1km/h 72% 0.00in /  0mm
08:05 41.8 °F /  5.4 °C 33.4 °F /  0.8 °C 30.00in /  1015.8hPa West 8.0mph /  12.9km/h 13.0mph /  20.9km/h 72% 0.00in /  0mm
08:10 41.8 °F /  5.4 °C 33.4 °F /  0.8 °C 30.00in /  1015.8hPa West 6.0mph /  9.7km/h 13.0mph /  20.9km/h 72% 0.00in /  0mm
08:15 41.8 °F /  5.4 °C 33.4 °F /  0.8 °C 30.00in /  1015.8hPa West 4.0mph /  6.4km/h 9.0mph /  14.5km/h 72% 0.00in /  0mm
08:20 41.8 °F /  5.4 °C 33.4 °F /  0.8 °C 30.01in /  1016.1hPa WNW 7.0mph /  11.3km/h 10.0mph /  16.1km/h 72% 0.00in /  0mm
08:25 41.9 °F /  5.5 °C 33.5 °F /  0.8 °C 30.01in /  1016.1hPa WNW 4.0mph /  6.4km/h 10.0mph /  16.1km/h 72% 0.00in /  0mm
08:30 42.0 °F /  5.6 °C 33.6 °F /  0.9 °C 30.01in /  1016.1hPa West 5.0mph /  8km/h 10.0mph /  16.1km/h 72% 0.00in /  0mm
08:40 42.0 °F /  5.6 °C 33.6 °F /  0.9 °C 30.01in /  1016.1hPa West 4.0mph /  6.4km/h 9.0mph /  14.5km/h 72% 0.00in /  0mm
08:50 42.1 °F /  5.6 °C 33.7 °F /  0.9 °C 30.01in /  1016.1hPa WNW 3.0mph /  4.8km/h 6.0mph /  9.7km/h 72% 0.00in /  0mm
08:55 42.3 °F /  5.7 °C 33.9 °F /  1.1 °C 30.01in /  1016.1hPa WNW 4.0mph /  6.4km/h 7.0mph /  11.3km/h 72% 0.00in /  0mm
09:00 42.3 °F /  5.7 °C 33.6 °F /  0.9 °C 30.01in /  1016.1hPa West 2.0mph /  3.2km/h 7.0mph /  11.3km/h 71% 0.00in /  0mm
09:05 42.4 °F /  5.8 °C 33.7 °F /  0.9 °C 30.01in /  1016.1hPa WSW 3.0mph /  4.8km/h 6.0mph /  9.7km/h 71% 0.00in /  0mm
09:10 42.4 °F /  5.8 °C 33.7 °F /  0.9 °C 30.02in /  1016.5hPa WSW 3.0mph /  4.8km/h 7.0mph /  11.3km/h 71% 0.00in /  0mm
09:15 42.5 °F /  5.8 °C 33.8 °F /  1 °C 30.01in /  1016.1hPa WNW 4.0mph /  6.4km/h 7.0mph /  11.3km/h 71% 0.00in /  0mm
09:20 42.6 °F /  5.9 °C 33.9 °F /  1.1 °C 30.02in /  1016.5hPa WNW 3.0mph /  4.8km/h 8.0mph /  12.9km/h 71% 0.00in /  0mm
09:25 42.7 °F /  5.9 °C 34.0 °F /  1.1 °C 30.02in /  1016.5hPa West 4.0mph /  6.4km/h 9.0mph /  14.5km/h 71% 0.00in /  0mm
09:30 42.8 °F /  6 °C 34.1 °F /  1.2 °C 30.02in /  1016.5hPa West 2.0mph /  3.2km/h 9.0mph /  14.5km/h 71% 0.00in /  0mm
09:40 43.1 °F /  6.2 °C 34.3 °F /  1.3 °C 30.02in /  1016.5hPa WNW 4.0mph /  6.4km/h 10.0mph /  16.1km/h 71% 0.00in /  0mm
09:45 43.3 °F /  6.3 °C 34.5 °F /  1.4 °C 30.03in /  1016.8hPa WNW 3.0mph /  4.8km/h 9.0mph /  14.5km/h 71% 0.00in /  0mm
09:50 43.2 °F /  6.2 °C 34.1 °F /  1.2 °C 30.03in /  1016.8hPa WNW 5.0mph /  8km/h 9.0mph /  14.5km/h 70% 0.00in /  0mm
09:55 43.1 °F /  6.2 °C 34.3 °F /  1.3 °C 30.03in /  1016.8hPa West 6.0mph /  9.7km/h 11.0mph /  17.7km/h 71% 0.00in /  0mm
10:00 43.3 °F /  6.3 °C 34.2 °F /  1.2 °C 30.03in /  1016.8hPa West 7.0mph /  11.3km/h 11.0mph /  17.7km/h 70% 0.00in /  0mm
10:05 43.2 °F /  6.2 °C 34.1 °F /  1.2 °C 30.04in /  1017.2hPa WNW 6.0mph /  9.7km/h 12.0mph /  19.3km/h 70% 0.00in /  0mm
10:10 43.1 °F /  6.2 °C 34.0 °F /  1.1 °C 30.04in /  1017.2hPa West 7.0mph /  11.3km/h 14.0mph /  22.5km/h 70% 0.00in /  0mm
10:15 42.9 °F /  6.1 °C 33.8 °F /  1 °C 30.04in /  1017.2hPa NW 6.0mph /  9.7km/h 14.0mph /  22.5km/h 70% 0.00in /  0mm
10:20 42.7 °F /  5.9 °C 34.0 °F /  1.1 °C 30.04in /  1017.2hPa WNW 4.0mph /  6.4km/h 11.0mph /  17.7km/h 71% 0.00in /  0mm
10:25 42.7 °F /  5.9 °C 33.6 °F /  0.9 °C 30.04in /  1017.2hPa NW 7.0mph /  11.3km/h 9.0mph /  14.5km/h 70% 0.00in /  0mm
10:30 42.7 °F /  5.9 °C 34.0 °F /  1.1 °C 30.04in /  1017.2hPa West 3.0mph /  4.8km/h 9.0mph /  14.5km/h 71% 0.00in /  0mm
10:40 42.9 °F /  6.1 °C 34.2 °F /  1.2 °C 30.04in /  1017.2hPa NW 4.0mph /  6.4km/h 9.0mph /  14.5km/h 71% 0.00in /  0mm
10:50 42.9 °F /  6.1 °C 33.8 °F /  1 °C 30.05in /  1017.5hPa WNW 6.0mph /  9.7km/h 10.0mph /  16.1km/h 70% 0.00in /  0mm
10:55 42.7 °F /  5.9 °C 34.0 °F /  1.1 °C 30.05in /  1017.5hPa WNW 4.0mph /  6.4km/h 9.0mph /  14.5km/h 71% 0.00in /  0mm
11:00 42.6 °F /  5.9 °C 33.9 °F /  1.1 °C 30.05in /  1017.5hPa WNW 2.0mph /  3.2km/h 9.0mph /  14.5km/h 71% 0.00in /  0mm
11:05 42.6 °F /  5.9 °C 33.9 °F /  1.1 °C 30.05in /  1017.5hPa NW 4.0mph /  6.4km/h 9.0mph /  14.5km/h 71% 0.00in /  0mm
11:10 42.5 °F /  5.8 °C 33.8 °F /  1 °C 30.05in /  1017.5hPa NW 4.0mph /  6.4km/h 7.0mph /  11.3km/h 71% 0.00in /  0mm
11:15 42.5 °F /  5.8 °C 33.8 °F /  1 °C 30.05in /  1017.5hPa WNW 5.0mph /  8km/h 8.0mph /  12.9km/h 71% 0.00in /  0mm
11:25 42.5 °F /  5.8 °C 33.8 °F /  1 °C 30.05in /  1017.5hPa WNW 4.0mph /  6.4km/h 7.0mph /  11.3km/h 71% 0.00in /  0mm
11:30 42.5 °F /  5.8 °C 33.8 °F /  1 °C 30.05in /  1017.5hPa WNW 4.0mph /  6.4km/h 7.0mph /  11.3km/h 71% 0.00in /  0mm
11:40 42.8 °F /  6 °C 34.1 °F /  1.2 °C 30.05in /  1017.5hPa WNW 4.0mph /  6.4km/h 7.0mph /  11.3km/h 71% 0.00in /  0mm
11:45 42.7 °F /  5.9 °C 34.0 °F /  1.1 °C 30.06in /  1017.8hPa NW 5.0mph /  8km/h 8.0mph /  12.9km/h 71% 0.00in /  0mm
11:50 42.3 °F /  5.7 °C 33.6 °F /  0.9 °C 30.06in /  1017.8hPa NW 3.0mph /  4.8km/h 8.0mph /  12.9km/h 71% 0.00in /  0mm
11:55 42.0 °F /  5.6 °C 33.6 °F /  0.9 °C 30.06in /  1017.8hPa NW 4.0mph /  6.4km/h 8.0mph /  12.9km/h 72% 0.00in /  0mm
12:00 41.8 °F /  5.4 °C 33.8 °F /  1 °C 30.06in /  1017.8hPa NW 5.0mph /  8km/h 7.0mph /  11.3km/h 73% 0.00in /  0mm
12:10 41.2 °F /  5.1 °C 34.2 °F /  1.2 °C 30.07in /  1018.2hPa NW 2.0mph /  3.2km/h 7.0mph /  11.3km/h 76% 0.00in /  0mm
12:15 41.0 °F /  5 °C 35.6 °F /  2 °C 30.08in /  1018.5hPa NW 6.0mph /  9.7km/h 11.0mph /  17.7km/h 81% 0.00in /  0mm
12:20 40.6 °F /  4.8 °C 34.6 °F /  1.4 °C 30.08in /  1018.5hPa WNW 3.0mph /  4.8km/h 11.0mph /  17.7km/h 79% 0.00in /  0mm
12:25 40.3 °F /  4.6 °C 34.6 °F /  1.4 °C 30.08in /  1018.5hPa WNW 3.0mph /  4.8km/h 7.0mph /  11.3km/h 80% 0.01in /  0.3mm
12:35 39.9 °F /  4.4 °C 34.9 °F /  1.6 °C 30.08in /  1018.5hPa WNW 2.0mph /  3.2km/h 6.0mph /  9.7km/h 82% 0.02in /  0.5mm
12:40 39.7 °F /  4.3 °C 34.7 °F /  1.5 °C 30.08in /  1018.5hPa WNW 2.0mph /  3.2km/h 6.0mph /  9.7km/h 82% 0.02in /  0.5mm
12:45 39.8 °F /  4.3 °C 35.1 °F /  1.7 °C 30.08in /  1018.5hPa NW 3.0mph /  4.8km/h 7.0mph /  11.3km/h 83% 0.03in /  0.8mm
12:55 39.9 °F /  4.4 °C 35.5 °F /  1.9 °C 30.08in /  1018.5hPa WNW 5.0mph /  8km/h 8.0mph /  12.9km/h 84% 0.03in /  0.8mm
13:00 40.0 °F /  4.4 °C 35.6 °F /  2 °C 30.09in /  1018.8hPa Calm   8.0mph /  12.9km/h 84% 0.03in /  0.8mm
13:05 40.3 °F /  4.6 °C 36.2 °F /  2.3 °C 30.09in /  1018.8hPa Calm   4.0mph /  6.4km/h 85% 0.03in /  0.8mm
13:10 40.5 °F /  4.7 °C 36.3 °F /  2.4 °C 30.09in /  1018.8hPa Calm   6.0mph /  9.7km/h 85% 0.04in /  1mm
13:15 40.6 °F /  4.8 °C 36.4 °F /  2.4 °C 30.09in /  1018.8hPa Calm   6.0mph /  9.7km/h 85% 0.04in /  1mm
13:20 40.7 °F /  4.8 °C 36.5 °F /  2.5 °C 30.09in /  1018.8hPa Calm   2.0mph /  3.2km/h 85% 0.04in /  1mm
13:30 40.2 °F /  4.6 °C 35.8 °F /  2.1 °C 30.09in /  1018.8hPa Calm   4.0mph /  6.4km/h 84% 0.04in /  1mm
13:40 39.7 °F /  4.3 °C 35.3 °F /  1.8 °C 30.09in /  1018.8hPa Calm   4.0mph /  6.4km/h 84% 0.04in /  1mm
13:45 39.6 °F /  4.2 °C 35.2 °F /  1.8 °C 30.09in /  1018.8hPa Calm   3.0mph /  4.8km/h 84% 0.04in /  1mm
13:50 39.7 °F /  4.3 °C 35.3 °F /  1.8 °C 30.09in /  1018.8hPa Calm     84% 0.04in /  1mm
13:55 39.9 °F /  4.4 °C 35.8 °F /  2.1 °C 30.09in /  1018.8hPa Calm     85% 0.04in /  1mm
14:00 40.2 °F /  4.6 °C 36.4 °F /  2.4 °C 30.09in /  1018.8hPa Calm   2.0mph /  3.2km/h 86% 0.04in /  1mm
14:05 40.3 °F /  4.6 °C 36.2 °F /  2.3 °C 30.09in /  1018.8hPa Calm   2.0mph /  3.2km/h 85% 0.04in /  1mm
14:10 40.4 °F /  4.7 °C 36.3 °F /  2.4 °C 30.08in /  1018.5hPa Calm     85% 0.04in /  1mm
14:15 40.5 °F /  4.7 °C 36.3 °F /  2.4 °C 30.08in /  1018.5hPa Calm     85% 0.04in /  1mm
14:20 40.5 °F /  4.7 °C 36.1 °F /  2.3 °C 30.09in /  1018.8hPa Calm   2.0mph /  3.2km/h 84% 0.04in /  1mm
14:25 40.5 °F /  4.7 °C 36.1 °F /  2.3 °C 30.09in /  1018.8hPa Calm   2.0mph /  3.2km/h 84% 0.04in /  1mm
14:30 40.5 °F /  4.7 °C 36.1 °F /  2.3 °C 30.09in /  1018.8hPa NNW 2.0mph /  3.2km/h 3.0mph /  4.8km/h 84% 0.04in /  1mm
14:35 40.3 °F /  4.6 °C 35.9 °F /  2.2 °C 30.09in /  1018.8hPa ESE 3.0mph /  4.8km/h 4.0mph /  6.4km/h 84% 0.04in /  1mm
14:40 40.0 °F /  4.4 °C 35.9 °F /  2.2 °C 30.09in /  1018.8hPa ESE 2.0mph /  3.2km/h 4.0mph /  6.4km/h 85% 0.04in /  1mm
14:45 40.0 °F /  4.4 °C 35.9 °F /  2.2 °C 30.09in /  1018.8hPa Calm   4.0mph /  6.4km/h 85% 0.04in /  1mm
14:50 40.0 °F /  4.4 °C 35.9 °F /  2.2 °C 30.09in /  1018.8hPa Calm   2.0mph /  3.2km/h 85% 0.04in /  1mm
14:55 39.8 °F /  4.3 °C 35.7 °F /  2.1 °C 30.09in /  1018.8hPa Calm   1.0mph /  1.6km/h 85% 0.04in /  1mm
15:00 39.7 °F /  4.3 °C 35.6 °F /  2 °C 30.09in /  1018.8hPa Calm   1.0mph /  1.6km/h 85% 0.04in /  1mm
15:05 39.7 °F /  4.3 °C 35.9 °F /  2.2 °C 30.09in /  1018.8hPa NE 1.0mph /  1.6km/h 5.0mph /  8km/h 86% 0.04in /  1mm
15:10 39.6 °F /  4.2 °C 35.8 °F /  2.1 °C 30.09in /  1018.8hPa East 2.0mph /  3.2km/h 5.0mph /  8km/h 86% 0.04in /  1mm
15:15 39.5 °F /  4.2 °C 35.4 °F /  1.9 °C 30.09in /  1018.8hPa East 1.0mph /  1.6km/h 3.0mph /  4.8km/h 85% 0.04in /  1mm
15:25 39.3 °F /  4.1 °C 35.5 °F /  1.9 °C 30.09in /  1018.8hPa Calm   3.0mph /  4.8km/h 86% 0.04in /  1mm
15:30 39.4 °F /  4.1 °C 35.3 °F /  1.8 °C 30.10in /  1019.2hPa Calm   2.0mph /  3.2km/h 85% 0.04in /  1mm
15:35 39.3 °F /  4.1 °C 35.2 °F /  1.8 °C 30.10in /  1019.2hPa East 1.0mph /  1.6km/h 5.0mph /  8km/h 85% 0.04in /  1mm
15:40 39.3 °F /  4.1 °C 35.2 °F /  1.8 °C 30.10in /  1019.2hPa Calm   5.0mph /  8km/h 85% 0.04in /  1mm
15:45 39.4 °F /  4.1 °C 35.3 °F /  1.8 °C 30.10in /  1019.2hPa Calm   2.0mph /  3.2km/h 85% 0.04in /  1mm
15:50 39.3 °F /  4.1 °C 35.2 °F /  1.8 °C 30.10in /  1019.2hPa Calm   2.0mph /  3.2km/h 85% 0.04in /  1mm
15:55 39.4 °F /  4.1 °C 35.3 °F /  1.8 °C 30.10in /  1019.2hPa Calm   1.0mph /  1.6km/h 85% 0.04in /  1mm
16:00 39.5 °F /  4.2 °C 35.4 °F /  1.9 °C 30.11in /  1019.5hPa Calm   1.0mph /  1.6km/h 85% 0.04in /  1mm
16:05 39.5 °F /  4.2 °C 35.4 °F /  1.9 °C 30.11in /  1019.5hPa Calm   1.0mph /  1.6km/h 85% 0.04in /  1mm
16:10 39.5 °F /  4.2 °C 35.4 °F /  1.9 °C 30.11in /  1019.5hPa Calm   1.0mph /  1.6km/h 85% 0.04in /  1mm
16:15 39.5 °F /  4.2 °C 35.4 °F /  1.9 °C 30.11in /  1019.5hPa Calm   1.0mph /  1.6km/h 85% 0.04in /  1mm
16:20 39.6 °F /  4.2 °C 35.5 °F /  1.9 °C 30.11in /  1019.5hPa Calm   1.0mph /  1.6km/h 85% 0.04in /  1mm
16:25 39.6 °F /  4.2 °C 35.5 °F /  1.9 °C 30.11in /  1019.5hPa Calm     85% 0.04in /  1mm
16:30 39.7 °F /  4.3 °C 35.6 °F /  2 °C 30.11in /  1019.5hPa Calm     85% 0.04in /  1mm
16:35 39.8 °F /  4.3 °C 35.7 °F /  2.1 °C 30.12in /  1019.9hPa Calm     85% 0.04in /  1mm
16:40 39.8 °F /  4.3 °C 35.7 °F /  2.1 °C 30.12in /  1019.9hPa Calm     85% 0.04in /  1mm
16:50 39.8 °F /  4.3 °C 35.7 °F /  2.1 °C 30.12in /  1019.9hPa Calm   2.0mph /  3.2km/h 85% 0.04in /  1mm
17:00 39.8 °F /  4.3 °C 35.7 °F /  2.1 °C 30.12in /  1019.9hPa Calm     85% 0.04in /  1mm
17:05 39.8 °F /  4.3 °C 35.7 °F /  2.1 °C 30.12in /  1019.9hPa Calm     85% 0.04in /  1mm
17:10 39.7 °F /  4.3 °C 35.6 °F /  2 °C 30.13in /  1020.2hPa Calm     85% 0.04in /  1mm
17:15 39.7 °F /  4.3 °C 35.6 °F /  2 °C 30.13in /  1020.2hPa Calm     85% 0.04in /  1mm
17:25 39.7 °F /  4.3 °C 35.6 °F /  2 °C 30.13in /  1020.2hPa Calm     85% 0.04in /  1mm
17:30 39.6 °F /  4.2 °C 35.5 °F /  1.9 °C 30.13in /  1020.2hPa Calm     85% 0.04in /  1mm
17:35 39.6 °F /  4.2 °C 35.8 °F /  2.1 °C 30.13in /  1020.2hPa Calm     86% 0.04in /  1mm
17:40 39.6 °F /  4.2 °C 35.8 °F /  2.1 °C 30.13in /  1020.2hPa Calm     86% 0.04in /  1mm
17:50 39.6 °F /  4.2 °C 35.8 °F /  2.1 °C 30.14in /  1020.5hPa Calm     86% 0.04in /  1mm
17:55 39.5 °F /  4.2 °C 35.7 °F /  2.1 °C 30.14in /  1020.5hPa Calm     86% 0.04in /  1mm
18:00 39.5 °F /  4.2 °C 35.4 °F /  1.9 °C 30.14in /  1020.5hPa Calm     85% 0.04in /  1mm
18:05 39.5 °F /  4.2 °C 35.4 °F /  1.9 °C 30.15in /  1020.9hPa Calm     85% 0.04in /  1mm
18:10 39.4 °F /  4.1 °C 35.3 °F /  1.8 °C 30.15in /  1020.9hPa Calm     85% 0.04in /  1mm
18:15 39.4 °F /  4.1 °C 35.6 °F /  2 °C 30.15in /  1020.9hPa Calm     86% 0.04in /  1mm
18:20 39.4 °F /  4.1 °C 35.6 °F /  2 °C 30.15in /  1020.9hPa Calm     86% 0.04in /  1mm
18:25 39.3 °F /  4.1 °C 35.5 °F /  1.9 °C 30.16in /  1021.2hPa Calm     86% 0.04in /  1mm
18:30 39.3 °F /  4.1 °C 35.5 °F /  1.9 °C 30.16in /  1021.2hPa Calm     86% 0.04in /  1mm
18:35 39.2 °F /  4 °C 35.4 °F /  1.9 °C 30.16in /  1021.2hPa Calm   1.0mph /  1.6km/h 86% 0.04in /  1mm
18:40 39.2 °F /  4 °C 35.4 °F /  1.9 °C 30.16in /  1021.2hPa Calm   1.0mph /  1.6km/h 86% 0.04in /  1mm
18:45 39.1 °F /  3.9 °C 35.3 °F /  1.8 °C 30.16in /  1021.2hPa Calm   1.0mph /  1.6km/h 86% 0.04in /  1mm
18:50 39.1 °F /  3.9 °C 35.3 °F /  1.8 °C 30.16in /  1021.2hPa Calm   1.0mph /  1.6km/h 86% 0.04in /  1mm
18:55 39.1 °F /  3.9 °C 35.3 °F /  1.8 °C 30.17in /  1021.6hPa Calm   1.0mph /  1.6km/h 86% 0.04in /  1mm
19:00 39.0 °F /  3.9 °C 35.5 °F /  1.9 °C 30.17in /  1021.6hPa Calm     87% 0.04in /  1mm
19:05 38.9 °F /  3.8 °C 35.4 °F /  1.9 °C 30.17in /  1021.6hPa Calm   1.0mph /  1.6km/h 87% 0.04in /  1mm
19:10 38.9 °F /  3.8 °C 35.4 °F /  1.9 °C 30.17in /  1021.6hPa Calm   1.0mph /  1.6km/h 87% 0.04in /  1mm
19:15 38.9 °F /  3.8 °C 35.4 °F /  1.9 °C 30.17in /  1021.6hPa Calm     87% 0.04in /  1mm
19:20 38.8 °F /  3.8 °C 35.3 °F /  1.8 °C 30.18in /  1021.9hPa Calm     87% 0.04in /  1mm
19:25 38.8 °F /  3.8 °C 35.6 °F /  2 °C 30.17in /  1021.6hPa Calm     88% 0.04in /  1mm
19:30 38.8 °F /  3.8 °C 35.6 °F /  2 °C 30.18in /  1021.9hPa Calm     88% 0.04in /  1mm
19:35 38.7 °F /  3.7 °C 35.5 °F /  1.9 °C 30.18in /  1021.9hPa Calm     88% 0.04in /  1mm
19:40 38.7 °F /  3.7 °C 35.5 °F /  1.9 °C 30.18in /  1021.9hPa Calm   1.0mph /  1.6km/h 88% 0.04in /  1mm
19:50 38.6 °F /  3.7 °C 35.4 °F /  1.9 °C 30.18in /  1021.9hPa Calm     88% 0.04in /  1mm
19:55 38.6 °F /  3.7 °C 35.4 °F /  1.9 °C 30.18in /  1021.9hPa Calm   2.0mph /  3.2km/h 88% 0.04in /  1mm
20:00 38.6 °F /  3.7 °C 35.6 °F /  2 °C 30.19in /  1022.2hPa East 1.0mph /  1.6km/h 2.0mph /  3.2km/h 89% 0.04in /  1mm
20:05 38.5 °F /  3.6 °C 35.5 °F /  1.9 °C 30.19in /  1022.2hPa Calm   2.0mph /  3.2km/h 89% 0.04in /  1mm
20:10 38.5 °F /  3.6 °C 35.5 °F /  1.9 °C 30.19in /  1022.2hPa Calm   2.0mph /  3.2km/h 89% 0.04in /  1mm
20:15 38.4 °F /  3.6 °C 35.4 °F /  1.9 °C 30.19in /  1022.2hPa Calm   2.0mph /  3.2km/h 89% 0.04in /  1mm
20:20 38.4 °F /  3.6 °C 35.4 °F /  1.9 °C 30.19in /  1022.2hPa Calm   2.0mph /  3.2km/h 89% 0.04in /  1mm
20:25 38.4 °F /  3.6 °C 35.4 °F /  1.9 °C 30.19in /  1022.2hPa Calm   2.0mph /  3.2km/h 89% 0.04in /  1mm
20:30 38.3 °F /  3.5 °C 35.6 °F /  2 °C 30.19in /  1022.2hPa Calm     90% 0.04in /  1mm
20:35 38.2 °F /  3.4 °C 35.2 °F /  1.8 °C 30.19in /  1022.2hPa Calm     89% 0.04in /  1mm
20:40 38.0 °F /  3.3 °C 35.0 °F /  1.7 °C 30.20in /  1022.6hPa Calm     89% 0.04in /  1mm
20:45 37.8 °F /  3.2 °C 35.1 °F /  1.7 °C 30.20in /  1022.6hPa Calm     90% 0.04in /  1mm
20:55 37.8 °F /  3.2 °C 35.1 °F /  1.7 °C 30.20in /  1022.6hPa Calm     90% 0.05in /  1.3mm
21:00 37.7 °F /  3.2 °C 35.0 °F /  1.7 °C 30.20in /  1022.6hPa Calm     90% 0.05in /  1.3mm
21:05 37.7 °F /  3.2 °C 35.0 °F /  1.7 °C 30.20in /  1022.6hPa Calm     90% 0.05in /  1.3mm
21:10 37.8 °F /  3.2 °C 35.1 °F /  1.7 °C 30.20in /  1022.6hPa Calm     90% 0.05in /  1.3mm
21:15 37.7 °F /  3.2 °C 35.0 °F /  1.7 °C 30.20in /  1022.6hPa Calm     90% 0.05in /  1.3mm
21:25 37.7 °F /  3.2 °C 35.3 °F /  1.8 °C 30.20in /  1022.6hPa Calm     91% 0.05in /  1.3mm
21:30 37.6 °F /  3.1 °C 35.2 °F /  1.8 °C 30.20in /  1022.6hPa Calm     91% 0.05in /  1.3mm
21:40 37.6 °F /  3.1 °C 35.2 °F /  1.8 °C 30.21in /  1022.9hPa Calm     91% 0.05in /  1.3mm
21:45 37.6 °F /  3.1 °C 35.2 °F /  1.8 °C 30.21in /  1022.9hPa Calm     91% 0.05in /  1.3mm
21:50 37.7 °F /  3.2 °C 35.3 °F /  1.8 °C 30.21in /  1022.9hPa Calm     91% 0.06in /  1.5mm
21:55 37.7 °F /  3.2 °C 35.3 °F /  1.8 °C 30.21in /  1022.9hPa Calm     91% 0.06in /  1.5mm
22:00 37.6 °F /  3.1 °C 35.2 °F /  1.8 °C 30.21in /  1022.9hPa Calm     91% 0.06in /  1.5mm
22:05 37.6 °F /  3.1 °C 35.2 °F /  1.8 °C 30.21in /  1022.9hPa Calm     91% 0.06in /  1.5mm
22:10 37.6 °F /  3.1 °C 35.5 °F /  1.9 °C 30.21in /  1022.9hPa Calm     92% 0.06in /  1.5mm
22:15 37.6 °F /  3.1 °C 35.5 °F /  1.9 °C 30.21in /  1022.9hPa Calm     92% 0.06in /  1.5mm
22:20 37.6 °F /  3.1 °C 35.5 °F /  1.9 °C 30.21in /  1022.9hPa Calm     92% 0.06in /  1.5mm
22:30 37.6 °F /  3.1 °C 35.5 °F /  1.9 °C 30.21in /  1022.9hPa Calm     92% 0.06in /  1.5mm
22:35 37.7 °F /  3.2 °C 35.6 °F /  2 °C 30.21in /  1022.9hPa Calm     92% 0.06in /  1.5mm
22:45 37.7 °F /  3.2 °C 35.6 °F /  2 °C 30.21in /  1022.9hPa Calm     92% 0.06in /  1.5mm
22:55 37.8 °F /  3.2 °C 35.7 °F /  2.1 °C 30.21in /  1022.9hPa Calm     92% 0.06in /  1.5mm
23:00 37.7 °F /  3.2 °C 35.6 °F /  2 °C 30.21in /  1022.9hPa Calm     92% 0.06in /  1.5mm
23:05 37.7 °F /  3.2 °C 35.6 °F /  2 °C 30.21in /  1022.9hPa Calm   2.0mph /  3.2km/h 92% 0.06in /  1.5mm
23:10 37.7 °F /  3.2 °C 35.6 °F /  2 °C 30.22in /  1023.2hPa Calm   2.0mph /  3.2km/h 92% 0.06in /  1.5mm
23:15 37.7 °F /  3.2 °C 35.6 °F /  2 °C 30.22in /  1023.2hPa Calm   1.0mph /  1.6km/h 92% 0.06in /  1.5mm
23:20 37.6 °F /  3.1 °C 35.5 °F /  1.9 °C 30.22in /  1023.2hPa Calm   2.0mph /  3.2km/h 92% 0.06in /  1.5mm
23:25 37.6 °F /  3.1 °C 35.5 °F /  1.9 °C 30.22in /  1023.2hPa Calm   2.0mph /  3.2km/h 92% 0.06in /  1.5mm
23:30 37.5 °F /  3.1 °C 35.7 °F /  2.1 °C 30.22in /  1023.2hPa NNE 1.0mph /  1.6km/h 3.0mph /  4.8km/h 93% 0.06in /  1.5mm
23:35 37.5 °F /  3.1 °C 35.7 °F /  2.1 °C 30.22in /  1023.2hPa Calm   3.0mph /  4.8km/h 93% 0.06in /  1.5mm
23:40 37.4 °F /  3 °C 35.6 °F /  2 °C 30.22in /  1023.2hPa NNE 1.0mph /  1.6km/h 4.0mph /  6.4km/h 93% 0.06in /  1.5mm
23:45 37.2 °F /  2.9 °C 35.1 °F /  1.7 °C 30.22in /  1023.2hPa Calm   4.0mph /  6.4km/h 92% 0.06in /  1.5mm
23:50 37.0 °F /  2.8 °C 34.9 °F /  1.6 °C 30.22in /  1023.2hPa NNE 1.0mph /  1.6km/h 5.0mph /  8km/h 92% 0.06in /  1.5mm
Westford Weather
Compliments of Weather Underground

 
 
Current Radar Loop:

Copyright © WestfordWeather.net 2007-2014. All rights reserved.